sensor_id;sensor_type;location;lat;lon;timestamp;P1;durP1;ratioP1;P2;durP2;ratioP2
51828;SDS011;37881;48.024;8.774;2022-12-11T00:01:57;24.30;;;10.05;;
51828;SDS011;37881;48.024;8.774;2022-12-11T00:04:23;27.83;;;10.52;;
51828;SDS011;37881;48.024;8.774;2022-12-11T00:06:50;24.67;;;9.88;;
51828;SDS011;37881;48.024;8.774;2022-12-11T00:09:18;23.33;;;8.75;;
51828;SDS011;37881;48.024;8.774;2022-12-11T00:11:45;21.92;;;9.43;;
51828;SDS011;37881;48.024;8.774;2022-12-11T00:14:13;25.77;;;10.10;;
51828;SDS011;37881;48.024;8.774;2022-12-11T00:16:40;20.88;;;8.50;;
51828;SDS011;37881;48.024;8.774;2022-12-11T00:19:07;24.45;;;9.23;;
51828;SDS011;37881;48.024;8.774;2022-12-11T00:21:34;26.88;;;10.10;;
51828;SDS011;37881;48.024;8.774;2022-12-11T00:24:01;25.40;;;9.45;;
51828;SDS011;37881;48.024;8.774;2022-12-11T00:26:28;24.23;;;9.68;;
51828;SDS011;37881;48.024;8.774;2022-12-11T00:28:55;25.05;;;9.13;;
51828;SDS011;37881;48.024;8.774;2022-12-11T00:31:22;22.90;;;9.30;;
51828;SDS011;37881;48.024;8.774;2022-12-11T00:33:50;22.33;;;8.75;;
51828;SDS011;37881;48.024;8.774;2022-12-11T00:36:18;30.77;;;10.82;;
51828;SDS011;37881;48.024;8.774;2022-12-11T00:38:46;20.27;;;8.73;;
51828;SDS011;37881;48.024;8.774;2022-12-11T00:41:16;27.55;;;9.73;;
51828;SDS011;37881;48.024;8.774;2022-12-11T00:43:44;24.17;;;9.15;;
51828;SDS011;37881;48.024;8.774;2022-12-11T00:46:11;27.75;;;10.68;;
51828;SDS011;37881;48.024;8.774;2022-12-11T00:48:38;23.17;;;8.93;;
51828;SDS011;37881;48.024;8.774;2022-12-11T00:51:05;25.73;;;9.10;;
51828;SDS011;37881;48.024;8.774;2022-12-11T00:53:32;56.78;;;21.58;;
51828;SDS011;37881;48.024;8.774;2022-12-11T00:55:59;31.27;;;12.07;;
51828;SDS011;37881;48.024;8.774;2022-12-11T00:58:26;23.85;;;9.18;;
51828;SDS011;37881;48.024;8.774;2022-12-11T01:00:53;22.13;;;8.93;;
51828;SDS011;37881;48.024;8.774;2022-12-11T01:03:19;18.33;;;7.53;;
51828;SDS011;37881;48.024;8.774;2022-12-11T01:05:50;24.70;;;9.88;;
51828;SDS011;37881;48.024;8.774;2022-12-11T01:08:18;26.38;;;10.25;;
51828;SDS011;37881;48.024;8.774;2022-12-11T01:10:45;40.75;;;17.38;;
51828;SDS011;37881;48.024;8.774;2022-12-11T01:13:11;19.90;;;8.30;;
51828;SDS011;37881;48.024;8.774;2022-12-11T01:15:42;25.13;;;9.95;;
51828;SDS011;37881;48.024;8.774;2022-12-11T01:18:11;19.85;;;8.50;;
51828;SDS011;37881;48.024;8.774;2022-12-11T01:20:39;30.17;;;10.32;;
51828;SDS011;37881;48.024;8.774;2022-12-11T01:23:08;29.20;;;10.20;;
51828;SDS011;37881;48.024;8.774;2022-12-11T01:25:38;23.70;;;9.25;;
51828;SDS011;37881;48.024;8.774;2022-12-11T01:28:05;19.13;;;7.85;;
51828;SDS011;37881;48.024;8.774;2022-12-11T01:30:33;20.25;;;7.13;;
51828;SDS011;37881;48.024;8.774;2022-12-11T01:33:01;22.80;;;8.05;;
51828;SDS011;37881;48.024;8.774;2022-12-11T01:35:28;25.92;;;8.75;;
51828;SDS011;37881;48.024;8.774;2022-12-11T01:37:54;25.50;;;9.32;;
51828;SDS011;37881;48.024;8.774;2022-12-11T01:40:21;26.85;;;9.63;;
51828;SDS011;37881;48.024;8.774;2022-12-11T01:42:49;26.83;;;10.15;;
51828;SDS011;37881;48.024;8.774;2022-12-11T01:45:33;24.60;;;9.30;;
51828;SDS011;37881;48.024;8.774;2022-12-11T01:48:05;20.85;;;8.73;;
51828;SDS011;37881;48.024;8.774;2022-12-11T01:50:37;25.25;;;9.38;;
51828;SDS011;37881;48.024;8.774;2022-12-11T01:53:08;23.95;;;9.43;;
51828;SDS011;37881;48.024;8.774;2022-12-11T01:55:37;21.58;;;8.38;;
51828;SDS011;37881;48.024;8.774;2022-12-11T01:58:05;20.42;;;8.27;;
51828;SDS011;37881;48.024;8.774;2022-12-11T02:00:32;23.35;;;8.48;;
51828;SDS011;37881;48.024;8.774;2022-12-11T02:02:58;19.55;;;7.90;;
51828;SDS011;37881;48.024;8.774;2022-12-11T02:05:25;19.80;;;7.50;;
51828;SDS011;37881;48.024;8.774;2022-12-11T02:07:53;20.15;;;7.40;;
51828;SDS011;37881;48.024;8.774;2022-12-11T02:10:26;19.02;;;7.78;;
51828;SDS011;37881;48.024;8.774;2022-12-11T02:13:31;21.40;;;7.50;;
51828;SDS011;37881;48.024;8.774;2022-12-11T02:16:10;19.27;;;7.05;;
51828;SDS011;37881;48.024;8.774;2022-12-11T02:18:46;18.77;;;7.30;;
51828;SDS011;37881;48.024;8.774;2022-12-11T02:27:02;18.63;;;6.35;;
51828;SDS011;37881;48.024;8.774;2022-12-11T02:29:46;17.92;;;6.95;;
51828;SDS011;37881;48.024;8.774;2022-12-11T02:32:39;17.73;;;6.75;;
51828;SDS011;37881;48.024;8.774;2022-12-11T02:35:30;17.25;;;6.93;;
51828;SDS011;37881;48.024;8.774;2022-12-11T02:38:02;42.75;;;14.85;;
51828;SDS011;37881;48.024;8.774;2022-12-11T02:40:34;23.42;;;8.27;;
51828;SDS011;37881;48.024;8.774;2022-12-11T02:43:04;22.23;;;7.95;;
51828;SDS011;37881;48.024;8.774;2022-12-11T02:45:35;21.17;;;7.82;;
51828;SDS011;37881;48.024;8.774;2022-12-11T02:48:05;19.02;;;6.70;;
51828;SDS011;37881;48.024;8.774;2022-12-11T02:50:35;20.67;;;7.55;;
51828;SDS011;37881;48.024;8.774;2022-12-11T02:53:07;20.73;;;7.70;;
51828;SDS011;37881;48.024;8.774;2022-12-11T02:55:37;19.27;;;6.60;;
51828;SDS011;37881;48.024;8.774;2022-12-11T02:58:20;17.75;;;7.28;;
51828;SDS011;37881;48.024;8.774;2022-12-11T03:00:52;19.60;;;7.00;;
51828;SDS011;37881;48.024;8.774;2022-12-11T03:03:18;23.15;;;7.82;;
51828;SDS011;37881;48.024;8.774;2022-12-11T03:05:46;20.00;;;7.47;;
51828;SDS011;37881;48.024;8.774;2022-12-11T03:08:13;21.60;;;7.55;;
51828;SDS011;37881;48.024;8.774;2022-12-11T03:10:43;19.65;;;7.82;;
51828;SDS011;37881;48.024;8.774;2022-12-11T03:13:11;20.42;;;7.28;;
51828;SDS011;37881;48.024;8.774;2022-12-11T03:23:53;24.98;;;9.05;;
51828;SDS011;37881;48.024;8.774;2022-12-11T03:26:31;20.55;;;7.60;;
51828;SDS011;37881;48.024;8.774;2022-12-11T03:29:04;22.85;;;8.63;;
51828;SDS011;37881;48.024;8.774;2022-12-11T03:31:41;24.17;;;8.50;;
51828;SDS011;37881;48.024;8.774;2022-12-11T03:34:18;22.20;;;8.07;;
51828;SDS011;37881;48.024;8.774;2022-12-11T03:36:49;22.20;;;8.93;;
51828;SDS011;37881;48.024;8.774;2022-12-11T03:39:26;21.50;;;8.35;;
51828;SDS011;37881;48.024;8.774;2022-12-11T03:42:00;21.45;;;8.00;;
51828;SDS011;37881;48.024;8.774;2022-12-11T03:44:31;21.15;;;8.20;;
51828;SDS011;37881;48.024;8.774;2022-12-11T03:47:00;20.05;;;8.32;;
51828;SDS011;37881;48.024;8.774;2022-12-11T03:49:33;30.25;;;10.38;;
51828;SDS011;37881;48.024;8.774;2022-12-11T03:52:02;26.70;;;9.57;;
51828;SDS011;37881;48.024;8.774;2022-12-11T03:54:31;26.33;;;10.10;;
51828;SDS011;37881;48.024;8.774;2022-12-11T03:57:00;28.55;;;9.98;;
51828;SDS011;37881;48.024;8.774;2022-12-11T03:59:29;23.38;;;9.00;;
51828;SDS011;37881;48.024;8.774;2022-12-11T04:01:56;24.45;;;9.77;;
51828;SDS011;37881;48.024;8.774;2022-12-11T04:04:23;23.60;;;9.18;;
51828;SDS011;37881;48.024;8.774;2022-12-11T04:06:50;23.15;;;8.50;;
51828;SDS011;37881;48.024;8.774;2022-12-11T04:09:16;23.23;;;9.23;;
51828;SDS011;37881;48.024;8.774;2022-12-11T04:11:43;21.30;;;8.20;;
51828;SDS011;37881;48.024;8.774;2022-12-11T04:14:12;19.08;;;7.00;;
51828;SDS011;37881;48.024;8.774;2022-12-11T04:16:58;19.08;;;7.03;;
51828;SDS011;37881;48.024;8.774;2022-12-11T04:19:25;20.27;;;7.38;;
51828;SDS011;37881;48.024;8.774;2022-12-11T04:22:11;18.48;;;7.30;;
51828;SDS011;37881;48.024;8.774;2022-12-11T04:24:58;19.35;;;7.05;;
51828;SDS011;37881;48.024;8.774;2022-12-11T04:27:25;18.55;;;7.05;;
51828;SDS011;37881;48.024;8.774;2022-12-11T04:30:15;18.92;;;6.65;;
51828;SDS011;37881;48.024;8.774;2022-12-11T04:32:44;18.20;;;6.50;;
51828;SDS011;37881;48.024;8.774;2022-12-11T04:35:11;22.05;;;7.82;;
51828;SDS011;37881;48.024;8.774;2022-12-11T04:37:38;21.65;;;7.55;;
51828;SDS011;37881;48.024;8.774;2022-12-11T04:40:06;19.50;;;6.82;;
51828;SDS011;37881;48.024;8.774;2022-12-11T04:42:35;17.02;;;6.60;;
51828;SDS011;37881;48.024;8.774;2022-12-11T04:45:03;18.08;;;6.32;;
51828;SDS011;37881;48.024;8.774;2022-12-11T04:47:31;18.88;;;6.95;;
51828;SDS011;37881;48.024;8.774;2022-12-11T04:49:57;17.30;;;6.18;;
51828;SDS011;37881;48.024;8.774;2022-12-11T04:52:24;17.85;;;6.53;;
51828;SDS011;37881;48.024;8.774;2022-12-11T04:54:50;17.40;;;6.07;;
51828;SDS011;37881;48.024;8.774;2022-12-11T04:57:17;18.13;;;6.22;;
51828;SDS011;37881;48.024;8.774;2022-12-11T04:59:46;18.15;;;6.43;;
51828;SDS011;37881;48.024;8.774;2022-12-11T05:02:13;20.05;;;6.57;;
51828;SDS011;37881;48.024;8.774;2022-12-11T05:04:41;16.10;;;6.53;;
51828;SDS011;37881;48.024;8.774;2022-12-11T05:07:08;16.80;;;6.30;;
51828;SDS011;37881;48.024;8.774;2022-12-11T05:09:35;19.42;;;7.15;;
51828;SDS011;37881;48.024;8.774;2022-12-11T05:12:02;16.77;;;6.90;;
51828;SDS011;37881;48.024;8.774;2022-12-11T05:14:28;17.73;;;6.50;;
51828;SDS011;37881;48.024;8.774;2022-12-11T05:16:57;17.85;;;6.75;;
51828;SDS011;37881;48.024;8.774;2022-12-11T05:19:25;16.10;;;6.43;;
51828;SDS011;37881;48.024;8.774;2022-12-11T05:21:52;17.92;;;6.80;;
51828;SDS011;37881;48.024;8.774;2022-12-11T05:24:19;18.67;;;7.03;;
51828;SDS011;37881;48.024;8.774;2022-12-11T05:26:45;18.20;;;7.82;;
51828;SDS011;37881;48.024;8.774;2022-12-11T05:29:12;17.50;;;6.75;;
51828;SDS011;37881;48.024;8.774;2022-12-11T05:31:39;17.35;;;7.20;;
51828;SDS011;37881;48.024;8.774;2022-12-11T05:34:05;19.63;;;7.95;;
51828;SDS011;37881;48.024;8.774;2022-12-11T05:36:32;18.48;;;7.00;;
51828;SDS011;37881;48.024;8.774;2022-12-11T05:38:59;17.40;;;7.15;;
51828;SDS011;37881;48.024;8.774;2022-12-11T05:41:28;18.27;;;7.20;;
51828;SDS011;37881;48.024;8.774;2022-12-11T05:43:56;18.13;;;6.55;;
51828;SDS011;37881;48.024;8.774;2022-12-11T05:46:24;17.00;;;6.45;;
51828;SDS011;37881;48.024;8.774;2022-12-11T05:48:56;25.67;;;8.85;;
51828;SDS011;37881;48.024;8.774;2022-12-11T05:51:26;19.92;;;7.78;;
51828;SDS011;37881;48.024;8.774;2022-12-11T05:53:54;22.13;;;8.23;;
51828;SDS011;37881;48.024;8.774;2022-12-11T05:56:23;29.15;;;11.07;;
51828;SDS011;37881;48.024;8.774;2022-12-11T05:58:52;21.60;;;8.40;;
51828;SDS011;37881;48.024;8.774;2022-12-11T06:01:22;21.35;;;8.15;;
51828;SDS011;37881;48.024;8.774;2022-12-11T06:03:54;18.15;;;6.65;;
51828;SDS011;37881;48.024;8.774;2022-12-11T06:06:21;23.55;;;8.35;;
51828;SDS011;37881;48.024;8.774;2022-12-11T06:08:49;24.67;;;7.82;;
51828;SDS011;37881;48.024;8.774;2022-12-11T06:11:17;23.83;;;8.40;;
51828;SDS011;37881;48.024;8.774;2022-12-11T06:13:49;24.15;;;8.57;;
51828;SDS011;37881;48.024;8.774;2022-12-11T06:16:17;20.52;;;7.45;;
51828;SDS011;37881;48.024;8.774;2022-12-11T06:18:44;22.67;;;7.22;;
51828;SDS011;37881;48.024;8.774;2022-12-11T06:21:16;23.08;;;7.88;;
51828;SDS011;37881;48.024;8.774;2022-12-11T06:23:45;22.15;;;8.60;;
51828;SDS011;37881;48.024;8.774;2022-12-11T06:26:13;20.70;;;8.38;;
51828;SDS011;37881;48.024;8.774;2022-12-11T06:28:41;19.30;;;7.25;;
51828;SDS011;37881;48.024;8.774;2022-12-11T06:31:08;17.73;;;7.05;;
51828;SDS011;37881;48.024;8.774;2022-12-11T06:33:35;19.33;;;7.15;;
51828;SDS011;37881;48.024;8.774;2022-12-11T06:36:02;19.75;;;7.25;;
51828;SDS011;37881;48.024;8.774;2022-12-11T06:38:30;20.85;;;8.18;;
51828;SDS011;37881;48.024;8.774;2022-12-11T06:40:58;21.23;;;7.43;;
51828;SDS011;37881;48.024;8.774;2022-12-11T06:43:27;25.65;;;7.68;;
51828;SDS011;37881;48.024;8.774;2022-12-11T06:45:53;24.48;;;8.77;;
51828;SDS011;37881;48.024;8.774;2022-12-11T06:48:27;23.40;;;9.02;;
51828;SDS011;37881;48.024;8.774;2022-12-11T06:50:54;25.17;;;9.05;;
51828;SDS011;37881;48.024;8.774;2022-12-11T06:53:20;22.80;;;8.80;;
51828;SDS011;37881;48.024;8.774;2022-12-11T06:55:47;22.70;;;8.07;;
51828;SDS011;37881;48.024;8.774;2022-12-11T06:58:14;19.83;;;7.90;;
51828;SDS011;37881;48.024;8.774;2022-12-11T07:00:40;26.17;;;8.45;;
51828;SDS011;37881;48.024;8.774;2022-12-11T07:03:08;26.00;;;8.88;;
51828;SDS011;37881;48.024;8.774;2022-12-11T07:05:35;24.33;;;8.63;;
51828;SDS011;37881;48.024;8.774;2022-12-11T07:08:02;22.30;;;7.93;;
51828;SDS011;37881;48.024;8.774;2022-12-11T07:10:28;22.48;;;8.43;;
51828;SDS011;37881;48.024;8.774;2022-12-11T07:12:55;19.85;;;6.97;;
51828;SDS011;37881;48.024;8.774;2022-12-11T07:15:22;19.70;;;6.72;;
51828;SDS011;37881;48.024;8.774;2022-12-11T07:17:48;20.10;;;7.45;;
51828;SDS011;37881;48.024;8.774;2022-12-11T07:20:15;20.27;;;7.15;;
51828;SDS011;37881;48.024;8.774;2022-12-11T07:22:42;19.60;;;6.65;;
51828;SDS011;37881;48.024;8.774;2022-12-11T07:25:12;21.95;;;7.40;;
51828;SDS011;37881;48.024;8.774;2022-12-11T07:27:40;20.40;;;7.55;;
51828;SDS011;37881;48.024;8.774;2022-12-11T07:30:07;27.92;;;10.40;;
51828;SDS011;37881;48.024;8.774;2022-12-11T07:32:34;124.85;;;37.15;;
51828;SDS011;37881;48.024;8.774;2022-12-11T07:35:01;53.95;;;19.85;;
51828;SDS011;37881;48.024;8.774;2022-12-11T07:37:29;40.53;;;14.85;;
51828;SDS011;37881;48.024;8.774;2022-12-11T07:39:55;33.67;;;12.18;;
51828;SDS011;37881;48.024;8.774;2022-12-11T07:42:22;24.10;;;9.82;;
51828;SDS011;37881;48.024;8.774;2022-12-11T07:44:49;28.30;;;11.02;;
51828;SDS011;37881;48.024;8.774;2022-12-11T07:47:15;29.05;;;10.73;;
51828;SDS011;37881;48.024;8.774;2022-12-11T07:49:42;28.55;;;11.43;;
51828;SDS011;37881;48.024;8.774;2022-12-11T07:52:09;38.78;;;15.18;;
51828;SDS011;37881;48.024;8.774;2022-12-11T07:54:35;39.53;;;15.45;;
51828;SDS011;37881;48.024;8.774;2022-12-11T07:57:02;37.47;;;15.55;;
51828;SDS011;37881;48.024;8.774;2022-12-11T07:59:29;45.60;;;16.73;;
51828;SDS011;37881;48.024;8.774;2022-12-11T08:01:56;35.63;;;14.63;;
51828;SDS011;37881;48.024;8.774;2022-12-11T08:04:23;39.05;;;15.38;;
51828;SDS011;37881;48.024;8.774;2022-12-11T08:06:49;38.20;;;15.18;;
51828;SDS011;37881;48.024;8.774;2022-12-11T08:09:16;32.13;;;13.23;;
51828;SDS011;37881;48.024;8.774;2022-12-11T08:11:47;33.92;;;13.48;;
51828;SDS011;37881;48.024;8.774;2022-12-11T08:14:16;36.75;;;14.48;;
51828;SDS011;37881;48.024;8.774;2022-12-11T08:16:43;47.15;;;18.45;;
51828;SDS011;37881;48.024;8.774;2022-12-11T08:19:10;46.47;;;19.45;;
51828;SDS011;37881;48.024;8.774;2022-12-11T08:21:37;45.63;;;19.40;;
51828;SDS011;37881;48.024;8.774;2022-12-11T08:24:05;47.65;;;19.80;;
51828;SDS011;37881;48.024;8.774;2022-12-11T08:26:33;43.35;;;17.73;;
51828;SDS011;37881;48.024;8.774;2022-12-11T08:29:00;43.60;;;18.23;;
51828;SDS011;37881;48.024;8.774;2022-12-11T08:31:28;39.67;;;16.77;;
51828;SDS011;37881;48.024;8.774;2022-12-11T08:33:55;41.67;;;18.80;;
51828;SDS011;37881;48.024;8.774;2022-12-11T08:36:22;39.60;;;17.23;;
51828;SDS011;37881;48.024;8.774;2022-12-11T08:38:49;39.65;;;17.70;;
51828;SDS011;37881;48.024;8.774;2022-12-11T08:41:18;40.28;;;19.05;;
51828;SDS011;37881;48.024;8.774;2022-12-11T08:43:46;40.90;;;21.08;;
51828;SDS011;37881;48.024;8.774;2022-12-11T08:46:13;55.22;;;25.55;;
51828;SDS011;37881;48.024;8.774;2022-12-11T08:48:41;59.63;;;26.77;;
51828;SDS011;37881;48.024;8.774;2022-12-11T08:51:13;49.35;;;24.83;;
51828;SDS011;37881;48.024;8.774;2022-12-11T08:53:41;40.90;;;20.95;;
51828;SDS011;37881;48.024;8.774;2022-12-11T08:56:15;41.30;;;20.98;;
51828;SDS011;37881;48.024;8.774;2022-12-11T08:58:43;43.05;;;21.75;;
51828;SDS011;37881;48.024;8.774;2022-12-11T09:01:12;53.13;;;26.10;;
51828;SDS011;37881;48.024;8.774;2022-12-11T09:03:41;51.63;;;25.15;;
51828;SDS011;37881;48.024;8.774;2022-12-11T09:06:09;48.85;;;24.05;;
51828;SDS011;37881;48.024;8.774;2022-12-11T09:08:37;60.28;;;26.63;;
51828;SDS011;37881;48.024;8.774;2022-12-11T09:11:04;69.60;;;23.55;;
51828;SDS011;37881;48.024;8.774;2022-12-11T09:13:33;51.43;;;20.97;;
51828;SDS011;37881;48.024;8.774;2022-12-11T09:16:02;54.30;;;23.10;;
51828;SDS011;37881;48.024;8.774;2022-12-11T09:18:30;55.67;;;24.15;;
51828;SDS011;37881;48.024;8.774;2022-12-11T09:20:58;57.42;;;25.73;;
51828;SDS011;37881;48.024;8.774;2022-12-11T09:23:26;43.97;;;23.05;;
51828;SDS011;37881;48.024;8.774;2022-12-11T09:25:53;45.27;;;22.13;;
51828;SDS011;37881;48.024;8.774;2022-12-11T09:28:19;45.92;;;23.40;;
51828;SDS011;37881;48.024;8.774;2022-12-11T09:30:47;41.15;;;21.27;;
51828;SDS011;37881;48.024;8.774;2022-12-11T09:33:14;39.72;;;21.08;;
51828;SDS011;37881;48.024;8.774;2022-12-11T09:35:40;35.17;;;20.13;;
51828;SDS011;37881;48.024;8.774;2022-12-11T09:38:07;36.90;;;20.57;;
51828;SDS011;37881;48.024;8.774;2022-12-11T09:40:40;30.02;;;17.25;;
51828;SDS011;37881;48.024;8.774;2022-12-11T09:43:13;28.58;;;17.35;;
51828;SDS011;37881;48.024;8.774;2022-12-11T09:45:52;30.80;;;18.50;;
51828;SDS011;37881;48.024;8.774;2022-12-11T09:48:21;28.70;;;16.58;;
51828;SDS011;37881;48.024;8.774;2022-12-11T09:50:52;28.63;;;16.53;;
51828;SDS011;37881;48.024;8.774;2022-12-11T09:53:28;28.50;;;16.98;;
51828;SDS011;37881;48.024;8.774;2022-12-11T10:07:35;28.85;;;17.30;;
51828;SDS011;37881;48.024;8.774;2022-12-11T10:13:15;40.85;;;24.80;;
51828;SDS011;37881;48.024;8.774;2022-12-11T10:16:04;37.25;;;22.45;;
51828;SDS011;37881;48.024;8.774;2022-12-11T10:18:43;35.83;;;20.60;;
51828;SDS011;37881;48.024;8.774;2022-12-11T10:21:10;34.55;;;20.25;;
51828;SDS011;37881;48.024;8.774;2022-12-11T10:23:42;34.50;;;20.40;;
51828;SDS011;37881;48.024;8.774;2022-12-11T10:26:18;33.60;;;19.92;;
51828;SDS011;37881;48.024;8.774;2022-12-11T10:28:46;31.90;;;19.05;;
51828;SDS011;37881;48.024;8.774;2022-12-11T10:34:14;31.95;;;18.40;;
51828;SDS011;37881;48.024;8.774;2022-12-11T10:36:51;29.70;;;17.58;;
51828;SDS011;37881;48.024;8.774;2022-12-11T10:39:25;30.02;;;16.33;;
51828;SDS011;37881;48.024;8.774;2022-12-11T10:41:53;27.20;;;16.02;;
51828;SDS011;37881;48.024;8.774;2022-12-11T10:44:22;24.40;;;13.90;;
51828;SDS011;37881;48.024;8.774;2022-12-11T10:47:12;23.27;;;13.52;;
51828;SDS011;37881;48.024;8.774;2022-12-11T10:49:50;23.63;;;13.48;;
51828;SDS011;37881;48.024;8.774;2022-12-11T10:55:01;24.50;;;13.52;;
51828;SDS011;37881;48.024;8.774;2022-12-11T10:57:35;21.63;;;13.07;;
51828;SDS011;37881;48.024;8.774;2022-12-11T11:00:05;21.23;;;12.05;;
51828;SDS011;37881;48.024;8.774;2022-12-11T11:02:35;22.80;;;12.93;;
51828;SDS011;37881;48.024;8.774;2022-12-11T11:05:46;20.73;;;12.85;;
51828;SDS011;37881;48.024;8.774;2022-12-11T11:08:03;21.50;;;12.48;;
51828;SDS011;37881;48.024;8.774;2022-12-11T11:13:47;20.08;;;11.85;;
51828;SDS011;37881;48.024;8.774;2022-12-11T11:16:16;20.42;;;12.45;;
51828;SDS011;37881;48.024;8.774;2022-12-11T11:18:53;19.67;;;11.88;;
51828;SDS011;37881;48.024;8.774;2022-12-11T11:21:22;20.95;;;12.25;;
51828;SDS011;37881;48.024;8.774;2022-12-11T11:23:52;19.43;;;11.70;;
51828;SDS011;37881;48.024;8.774;2022-12-11T11:26:20;21.20;;;12.70;;
51828;SDS011;37881;48.024;8.774;2022-12-11T11:29:15;21.45;;;13.07;;
51828;SDS011;37881;48.024;8.774;2022-12-11T11:31:52;23.30;;;14.15;;
51828;SDS011;37881;48.024;8.774;2022-12-11T11:34:19;27.83;;;16.00;;
51828;SDS011;37881;48.024;8.774;2022-12-11T11:36:54;23.00;;;14.20;;
51828;SDS011;37881;48.024;8.774;2022-12-11T11:42:12;23.65;;;15.40;;
51828;SDS011;37881;48.024;8.774;2022-12-11T11:45:04;22.92;;;14.63;;
51828;SDS011;37881;48.024;8.774;2022-12-11T11:47:38;30.45;;;18.65;;
51828;SDS011;37881;48.024;8.774;2022-12-11T11:50:14;23.70;;;14.30;;
51828;SDS011;37881;48.024;8.774;2022-12-11T11:55:17;22.88;;;13.63;;
51828;SDS011;37881;48.024;8.774;2022-12-11T11:58:01;25.65;;;15.10;;
51828;SDS011;37881;48.024;8.774;2022-12-11T12:00:39;24.10;;;14.60;;
51828;SDS011;37881;48.024;8.774;2022-12-11T12:03:10;25.83;;;14.93;;
51828;SDS011;37881;48.024;8.774;2022-12-11T12:06:03;24.63;;;13.70;;
51828;SDS011;37881;48.024;8.774;2022-12-11T12:22:25;23.70;;;12.45;;
51828;SDS011;37881;48.024;8.774;2022-12-11T12:30:18;23.47;;;10.43;;
51828;SDS011;37881;48.024;8.774;2022-12-11T12:35:32;18.38;;;8.93;;
51828;SDS011;37881;48.024;8.774;2022-12-11T12:40:52;16.20;;;7.72;;
51828;SDS011;37881;48.024;8.774;2022-12-11T12:49:20;18.50;;;9.32;;
51828;SDS011;37881;48.024;8.774;2022-12-11T12:51:54;25.90;;;11.57;;
51828;SDS011;37881;48.024;8.774;2022-12-11T12:54:23;19.45;;;9.45;;
51828;SDS011;37881;48.024;8.774;2022-12-11T12:56:54;16.43;;;8.10;;
51828;SDS011;37881;48.024;8.774;2022-12-11T12:59:25;20.90;;;10.02;;
51828;SDS011;37881;48.024;8.774;2022-12-11T13:02:03;18.75;;;8.50;;
51828;SDS011;37881;48.024;8.774;2022-12-11T13:04:36;18.95;;;7.70;;
51828;SDS011;37881;48.024;8.774;2022-12-11T13:07:29;18.30;;;8.70;;
51828;SDS011;37881;48.024;8.774;2022-12-11T13:10:05;14.27;;;7.20;;
51828;SDS011;37881;48.024;8.774;2022-12-11T13:12:50;14.20;;;6.13;;
51828;SDS011;37881;48.024;8.774;2022-12-11T13:15:28;12.63;;;5.80;;
51828;SDS011;37881;48.024;8.774;2022-12-11T13:17:58;14.50;;;7.20;;
51828;SDS011;37881;48.024;8.774;2022-12-11T13:20:28;32.83;;;13.40;;
51828;SDS011;37881;48.024;8.774;2022-12-11T13:25:53;18.98;;;6.68;;
51828;SDS011;37881;48.024;8.774;2022-12-11T13:33:27;13.00;;;5.72;;
51828;SDS011;37881;48.024;8.774;2022-12-11T13:38:47;10.20;;;4.30;;
51828;SDS011;37881;48.024;8.774;2022-12-11T13:41:17;8.95;;;4.65;;
51828;SDS011;37881;48.024;8.774;2022-12-11T13:43:46;14.52;;;6.78;;
51828;SDS011;37881;48.024;8.774;2022-12-11T13:46:18;18.45;;;9.25;;
51828;SDS011;37881;48.024;8.774;2022-12-11T13:48:54;18.53;;;8.80;;
51828;SDS011;37881;48.024;8.774;2022-12-11T13:51:27;19.73;;;9.07;;
51828;SDS011;37881;48.024;8.774;2022-12-11T13:54:11;16.80;;;8.13;;
51828;SDS011;37881;48.024;8.774;2022-12-11T13:56:59;11.70;;;5.65;;
51828;SDS011;37881;48.024;8.774;2022-12-11T13:59:31;13.65;;;6.60;;
51828;SDS011;37881;48.024;8.774;2022-12-11T14:02:13;17.33;;;8.20;;
51828;SDS011;37881;48.024;8.774;2022-12-11T14:04:46;19.08;;;9.35;;
51828;SDS011;37881;48.024;8.774;2022-12-11T14:07:16;16.15;;;7.70;;
51828;SDS011;37881;48.024;8.774;2022-12-11T14:09:49;18.58;;;8.60;;
51828;SDS011;37881;48.024;8.774;2022-12-11T14:12:17;23.98;;;10.82;;
51828;SDS011;37881;48.024;8.774;2022-12-11T14:14:50;7.80;;;3.73;;
51828;SDS011;37881;48.024;8.774;2022-12-11T14:17:24;8.32;;;4.30;;
51828;SDS011;37881;48.024;8.774;2022-12-11T14:19:53;10.90;;;4.80;;
51828;SDS011;37881;48.024;8.774;2022-12-11T14:22:27;16.77;;;7.45;;
51828;SDS011;37881;48.024;8.774;2022-12-11T14:24:56;17.13;;;7.82;;
51828;SDS011;37881;48.024;8.774;2022-12-11T14:27:25;16.23;;;7.45;;
51828;SDS011;37881;48.024;8.774;2022-12-11T14:29:53;14.30;;;5.90;;
51828;SDS011;37881;48.024;8.774;2022-12-11T14:32:36;10.48;;;5.10;;
51828;SDS011;37881;48.024;8.774;2022-12-11T14:35:13;10.05;;;4.47;;
51828;SDS011;37881;48.024;8.774;2022-12-11T14:37:49;13.48;;;5.50;;
51828;SDS011;37881;48.024;8.774;2022-12-11T14:40:18;10.32;;;4.30;;
51828;SDS011;37881;48.024;8.774;2022-12-11T14:42:50;12.50;;;5.32;;
51828;SDS011;37881;48.024;8.774;2022-12-11T14:48:06;14.02;;;5.65;;
51828;SDS011;37881;48.024;8.774;2022-12-11T14:50:56;15.75;;;5.25;;
51828;SDS011;37881;48.024;8.774;2022-12-11T14:53:34;20.67;;;6.53;;
51828;SDS011;37881;48.024;8.774;2022-12-11T14:56:06;22.15;;;7.93;;
51828;SDS011;37881;48.024;8.774;2022-12-11T14:58:39;19.17;;;8.70;;
51828;SDS011;37881;48.024;8.774;2022-12-11T15:04:00;14.90;;;7.35;;
51828;SDS011;37881;48.024;8.774;2022-12-11T15:06:46;16.23;;;7.45;;
51828;SDS011;37881;48.024;8.774;2022-12-11T15:12:07;19.08;;;10.80;;
51828;SDS011;37881;48.024;8.774;2022-12-11T15:14:46;16.42;;;6.90;;
51828;SDS011;37881;48.024;8.774;2022-12-11T15:17:15;13.68;;;6.53;;
51828;SDS011;37881;48.024;8.774;2022-12-11T15:19:47;13.85;;;5.68;;
51828;SDS011;37881;48.024;8.774;2022-12-11T15:22:17;11.68;;;4.82;;
51828;SDS011;37881;48.024;8.774;2022-12-11T15:24:49;12.27;;;5.57;;
51828;SDS011;37881;48.024;8.774;2022-12-11T15:27:23;12.38;;;5.43;;
51828;SDS011;37881;48.024;8.774;2022-12-11T15:29:50;13.35;;;6.43;;
51828;SDS011;37881;48.024;8.774;2022-12-11T15:32:18;17.00;;;6.68;;
51828;SDS011;37881;48.024;8.774;2022-12-11T15:37:21;15.25;;;6.60;;
51828;SDS011;37881;48.024;8.774;2022-12-11T15:39:48;14.73;;;6.30;;
51828;SDS011;37881;48.024;8.774;2022-12-11T15:42:37;18.00;;;7.20;;
51828;SDS011;37881;48.024;8.774;2022-12-11T15:45:08;23.80;;;10.27;;
51828;SDS011;37881;48.024;8.774;2022-12-11T15:47:42;19.45;;;8.45;;
51828;SDS011;37881;48.024;8.774;2022-12-11T15:52:48;16.05;;;7.20;;
51828;SDS011;37881;48.024;8.774;2022-12-11T15:55:16;14.10;;;6.32;;
51828;SDS011;37881;48.024;8.774;2022-12-11T15:57:45;11.70;;;5.40;;
51828;SDS011;37881;48.024;8.774;2022-12-11T16:00:17;16.83;;;6.88;;
51828;SDS011;37881;48.024;8.774;2022-12-11T16:02:44;15.98;;;6.78;;
51828;SDS011;37881;48.024;8.774;2022-12-11T16:05:12;21.20;;;8.02;;
51828;SDS011;37881;48.024;8.774;2022-12-11T16:07:40;29.25;;;12.00;;
51828;SDS011;37881;48.024;8.774;2022-12-11T16:10:09;28.42;;;13.88;;
51828;SDS011;37881;48.024;8.774;2022-12-11T16:12:39;19.08;;;9.27;;
51828;SDS011;37881;48.024;8.774;2022-12-11T16:15:07;23.02;;;10.98;;
51828;SDS011;37881;48.024;8.774;2022-12-11T16:17:35;26.77;;;12.15;;
51828;SDS011;37881;48.024;8.774;2022-12-11T16:20:02;24.55;;;9.98;;
51828;SDS011;37881;48.024;8.774;2022-12-11T16:22:29;20.75;;;8.75;;
51828;SDS011;37881;48.024;8.774;2022-12-11T16:24:56;16.88;;;7.10;;
51828;SDS011;37881;48.024;8.774;2022-12-11T16:27:23;13.70;;;5.90;;
51828;SDS011;37881;48.024;8.774;2022-12-11T16:29:49;13.35;;;6.25;;